createdAt,value
2019-01-02T00:00:17.989Z,20.03
2019-01-02T00:02:47.560Z,17.50
2019-01-02T00:05:16.961Z,12.73
2019-01-02T00:07:46.061Z,16.67
2019-01-02T00:10:15.181Z,13.40
2019-01-02T00:12:44.337Z,14.87
2019-01-02T00:15:13.945Z,12.37
2019-01-02T00:17:43.053Z,14.40
2019-01-02T00:20:14.085Z,12.60
2019-01-02T00:22:43.197Z,17.57
2019-01-02T00:25:12.314Z,14.73
2019-01-02T00:27:41.826Z,14.77
2019-01-02T00:30:11.034Z,15.87
2019-01-02T00:32:40.537Z,16.47
2019-01-02T00:35:09.710Z,14.87
2019-01-02T00:37:39.333Z,16.93
2019-01-02T00:40:09.769Z,15.67
2019-01-02T00:42:39.388Z,14.17
2019-01-02T00:45:08.993Z,12.80
2019-01-02T00:47:38.489Z,16.30
2019-01-02T00:50:09.984Z,14.73
2019-01-02T00:52:39.563Z,16.30
2019-01-02T00:55:09.177Z,14.97
2019-01-02T00:57:38.685Z,18.27
2019-01-02T01:00:20.399Z,16.57
2019-01-02T01:02:49.566Z,14.93
2019-01-02T01:05:18.761Z,18.53
2019-01-02T01:07:48.026Z,16.83
2019-01-02T01:10:18.225Z,13.03
2019-01-02T01:12:47.846Z,17.70
2019-01-02T01:15:17.121Z,15.43
2019-01-02T01:17:46.261Z,19.10
2019-01-02T01:20:17.889Z,10.53
2019-01-02T01:22:47.001Z,18.00
2019-01-02T01:25:16.140Z,13.53
2019-01-02T01:27:45.301Z,20.33
2019-01-02T01:30:14.895Z,15.13
2019-01-02T01:32:44.009Z,10.80
2019-01-02T01:35:14.963Z,19.63
2019-01-02T01:37:53.994Z,14.90
2019-01-02T01:40:23.291Z,11.40
2019-01-02T01:42:52.412Z,10.87
2019-01-02T01:45:21.937Z,13.17
2019-01-02T01:47:51.109Z,12.87
2019-01-02T01:50:20.689Z,16.43
2019-01-02T01:52:49.876Z,12.77
2019-01-02T01:55:19.269Z,20.43
2019-01-02T01:57:48.962Z,19.90
2019-01-02T02:00:20.185Z,18.87
2019-01-02T02:02:49.714Z,13.53
2019-01-02T02:05:19.281Z,16.37
2019-01-02T02:07:48.401Z,12.47
2019-01-02T02:10:18.338Z,12.53
2019-01-02T02:12:47.461Z,9.70
2019-01-02T02:15:16.593Z,10.33
2019-01-02T02:17:46.081Z,10.43
2019-01-02T02:20:15.757Z,7.33
2019-01-02T02:22:44.874Z,7.40
2019-01-02T02:25:18.896Z,8.10
2019-01-02T02:27:48.080Z,10.83
2019-01-02T02:30:17.713Z,11.33
2019-01-02T02:32:48.424Z,8.53
2019-01-02T02:35:18.002Z,11.13
2019-01-02T02:37:47.254Z,11.33
2019-01-02T02:40:16.534Z,11.50
2019-01-02T02:42:45.669Z,13.77
2019-01-02T02:45:15.445Z,15.30
2019-01-02T02:47:45.039Z,15.40
2019-01-02T02:50:17.845Z,15.03
2019-01-02T02:52:47.661Z,13.13
2019-01-02T02:55:20.433Z,12.33
2019-01-02T02:57:49.637Z,12.17
2019-01-02T03:00:18.813Z,11.67
2019-01-02T03:02:47.938Z,8.23
2019-01-02T03:05:17.377Z,9.77
2019-01-02T03:07:46.970Z,13.10
2019-01-02T03:10:17.175Z,9.37
2019-01-02T03:12:46.736Z,8.80
2019-01-02T03:15:16.282Z,13.00
2019-01-02T03:17:45.393Z,14.93
2019-01-02T03:20:15.637Z,12.63
2019-01-02T03:22:45.813Z,12.00
2019-01-02T03:25:15.425Z,16.37
2019-01-02T03:27:44.917Z,12.73
2019-01-02T03:30:16.882Z,12.77
2019-01-02T03:32:46.474Z,12.20
2019-01-02T03:35:16.186Z,10.43
2019-01-02T03:37:45.307Z,11.10
2019-01-02T03:40:14.413Z,8.87
2019-01-02T03:42:43.889Z,10.90
2019-01-02T03:45:15.541Z,9.53
2019-01-02T03:47:44.645Z,9.60
2019-01-02T03:50:15.925Z,11.03
2019-01-02T03:52:45.005Z,7.97
2019-01-02T03:55:14.178Z,11.50
2019-01-02T03:57:43.277Z,13.67
2019-01-02T04:00:14.695Z,9.93
2019-01-02T04:02:43.889Z,9.60
2019-01-02T04:05:14.642Z,8.30
2019-01-02T04:07:46.871Z,7.83
2019-01-02T04:10:15.965Z,8.53
2019-01-02T04:12:45.121Z,11.07
2019-01-02T04:15:14.294Z,5.50
2019-01-02T04:17:43.421Z,10.90
2019-01-02T04:20:12.533Z,9.33
2019-01-02T04:22:41.685Z,8.70
2019-01-02T04:25:10.836Z,11.07
2019-01-02T04:27:39.937Z,11.20
2019-01-02T04:30:11.753Z,10.07
2019-01-02T04:32:40.851Z,13.47
2019-01-02T04:35:10.001Z,19.63
2019-01-02T04:37:39.118Z,20.40
2019-01-02T04:40:10.646Z,22.70
2019-01-02T04:42:39.925Z,25.20
2019-01-02T04:45:10.025Z,25.47
2019-01-02T04:47:39.337Z,24.30
2019-01-02T04:50:10.877Z,21.43
2019-01-02T04:52:40.007Z,26.83
2019-01-02T04:55:09.143Z,32.80
2019-01-02T04:57:38.517Z,22.13
2019-01-02T05:00:16.077Z,17.53
2019-01-02T05:02:45.214Z,29.40
2019-01-02T05:05:14.344Z,21.47
2019-01-02T05:07:43.508Z,23.00
2019-01-02T05:10:14.131Z,23.70
2019-01-02T05:12:43.326Z,32.87
2019-01-02T05:15:12.494Z,24.27
2019-01-02T05:17:41.601Z,20.10
2019-01-02T05:20:13.191Z,28.90
2019-01-02T05:22:42.335Z,23.77
2019-01-02T05:25:11.822Z,32.07
2019-01-02T05:27:40.939Z,28.20
2019-01-02T05:30:18.456Z,25.13
2019-01-02T05:32:47.569Z,27.20
2019-01-02T05:35:16.723Z,17.53
2019-01-02T05:37:46.229Z,31.00
2019-01-02T05:40:17.974Z,28.93
2019-01-02T05:42:47.098Z,31.97
2019-01-02T05:45:16.497Z,27.87
2019-01-02T05:47:45.617Z,34.00
2019-01-02T05:50:14.717Z,26.17
2019-01-02T05:52:43.881Z,26.23
2019-01-02T05:55:12.994Z,26.67
2019-01-02T05:57:42.101Z,24.83
2019-01-02T06:00:13.237Z,27.80
2019-01-02T06:02:42.373Z,24.37
2019-01-02T06:05:11.516Z,32.87
2019-01-02T06:07:40.669Z,25.23
2019-01-02T06:10:12.429Z,24.47
2019-01-02T06:12:41.588Z,29.23
2019-01-02T06:15:13.312Z,27.03
2019-01-02T06:17:42.433Z,28.30
2019-01-02T06:20:13.708Z,35.20
2019-01-02T06:22:42.857Z,25.63
2019-01-02T06:25:11.993Z,36.27
2019-01-02T06:27:41.106Z,30.40
2019-01-02T06:30:12.630Z,32.00
2019-01-02T06:32:41.828Z,27.07
2019-01-02T06:35:11.313Z,27.53
2019-01-02T06:37:40.809Z,30.03
2019-01-02T06:40:12.038Z,23.30
2019-01-02T06:42:41.153Z,32.63
2019-01-02T06:45:12.601Z,27.27
2019-01-02T06:47:41.738Z,25.27
2019-01-02T06:50:30.231Z,31.30
2019-01-02T06:52:59.362Z,28.63
2019-01-02T06:55:28.533Z,29.57
2019-01-02T06:57:57.678Z,32.17
2019-01-02T07:00:47.029Z,25.83
2019-01-02T07:03:16.453Z,33.83
2019-01-02T07:05:45.697Z,30.70
2019-01-02T07:08:14.942Z,29.13
2019-01-02T07:10:44.365Z,32.40
2019-01-02T07:13:13.497Z,33.03
2019-01-02T07:15:42.605Z,29.07
2019-01-02T07:18:11.980Z,36.60
2019-01-02T07:20:41.163Z,34.33
2019-01-02T07:23:10.289Z,32.53
2019-01-02T07:25:39.415Z,28.03
2019-01-02T07:34:44.799Z,28.73
2019-01-02T07:34:46.142Z,26.47
2019-01-02T07:37:38.864Z,34.20
2019-01-02T07:44:14.216Z,36.10
2019-01-02T07:47:29.069Z,34.63
2019-01-02T07:50:33.074Z,36.07
2019-01-02T07:53:22.276Z,26.27
2019-01-02T07:56:20.494Z,39.13
2019-01-02T07:59:28.088Z,37.33
2019-01-02T08:02:27.046Z,38.80
2019-01-02T08:05:08.161Z,31.63
2019-01-02T08:08:04.805Z,32.53
2019-01-02T08:11:12.197Z,35.43
2019-01-02T08:14:31.282Z,40.20
2019-01-02T08:17:32.008Z,44.63
2019-01-02T08:20:40.274Z,44.07
2019-01-02T08:23:34.469Z,36.47
2019-01-02T08:26:59.894Z,41.60
2019-01-02T08:29:45.888Z,33.83
2019-01-02T08:33:07.273Z,41.33
2019-01-02T08:36:28.603Z,32.70
2019-01-02T08:39:34.657Z,49.37
2019-01-02T08:42:46.048Z,42.27
2019-01-02T08:45:48.453Z,33.57
2019-01-02T08:48:46.304Z,39.50
2019-01-02T08:51:52.413Z,34.53
2019-01-02T08:55:04.725Z,35.83
2019-01-02T08:58:18.249Z,33.90
2019-01-02T09:01:28.460Z,37.53
2019-01-02T09:04:23.684Z,38.23
2019-01-02T09:07:23.162Z,31.07
2019-01-02T09:10:20.174Z,34.17
2019-01-02T09:13:14.620Z,29.90
2019-01-02T09:16:24.453Z,33.43
2019-01-02T09:19:33.422Z,41.47
2019-01-02T09:23:05.156Z,36.63
2019-01-02T09:26:14.206Z,38.57
2019-01-02T09:29:42.787Z,42.90
2019-01-02T09:32:48.981Z,34.83
2019-01-02T09:36:01.398Z,42.93
2019-01-02T09:39:16.802Z,37.43
2019-01-02T09:42:24.757Z,30.83
2019-01-02T09:45:31.145Z,32.50
2019-01-02T09:48:27.290Z,35.93
2019-01-02T09:51:24.082Z,36.23
2019-01-02T09:54:39.278Z,37.77
2019-01-02T09:57:48.473Z,37.07
2019-01-02T10:00:49.054Z,43.80
2019-01-02T10:04:14.393Z,36.33
2019-01-02T10:07:24.070Z,41.17
2019-01-02T10:10:27.353Z,28.57
2019-01-02T10:13:18.693Z,30.97
2019-01-02T10:16:27.886Z,31.50
2019-01-02T10:20:02.354Z,32.77
2019-01-02T10:23:04.748Z,32.57
2019-01-02T10:26:11.442Z,34.50
2019-01-02T10:29:06.806Z,33.63
2019-01-02T10:32:25.943Z,38.03
2019-01-02T10:35:31.835Z,36.13
2019-01-02T10:38:25.264Z,39.23
2019-01-02T10:41:31.038Z,42.17
2019-01-02T10:44:30.108Z,34.27
2019-01-02T10:47:16.837Z,29.23
2019-01-02T10:50:20.281Z,31.87
2019-01-02T10:53:33.385Z,33.27
2019-01-02T10:56:53.030Z,28.70
2019-01-02T11:00:07.366Z,44.20
2019-01-02T11:03:26.587Z,45.17
2019-01-02T11:06:23.129Z,35.40
2019-01-02T11:09:21.623Z,28.87
2019-01-02T11:12:20.309Z,30.47
2019-01-02T11:15:20.766Z,39.83
2019-01-02T11:18:43.153Z,33.73
2019-01-02T11:22:11.717Z,26.37
2019-01-02T11:25:35.717Z,18.50
2019-01-02T11:28:57.424Z,19.07
2019-01-02T11:32:03.192Z,24.07
2019-01-02T11:35:08.406Z,27.70
2019-01-02T11:38:09.165Z,21.53
2019-01-02T11:41:09.859Z,22.13
2019-01-02T11:44:25.257Z,18.83
2019-01-02T11:46:54.377Z,16.83
2019-01-02T11:49:23.493Z,14.90
2019-01-02T11:51:52.660Z,19.10
2019-01-02T11:54:21.771Z,25.03
2019-01-02T11:56:50.961Z,19.40
2019-01-02T11:59:20.074Z,24.50
2019-01-02T12:01:49.249Z,19.83
2019-01-02T12:04:18.513Z,19.07
2019-01-02T12:06:47.662Z,18.53
2019-01-02T12:09:16.970Z,17.77
2019-01-02T12:11:46.194Z,17.33
2019-01-02T12:14:15.320Z,18.43
2019-01-02T12:16:44.439Z,19.27
2019-01-02T12:19:13.695Z,12.13
2019-01-02T12:21:42.813Z,15.53
2019-01-02T12:24:11.966Z,13.87
2019-01-02T12:26:41.117Z,16.80
2019-01-02T12:29:10.249Z,17.83
2019-01-02T12:31:39.349Z,15.57
2019-01-02T12:34:08.557Z,15.60
2019-01-02T12:36:37.772Z,18.47
2019-01-02T12:39:07.610Z,15.53
2019-01-02T12:41:36.753Z,17.03
2019-01-02T12:44:05.888Z,21.73
2019-01-02T12:46:35.049Z,20.23
2019-01-02T12:49:04.414Z,19.83
2019-01-02T12:51:33.777Z,14.27
2019-01-02T12:54:02.935Z,18.03
2019-01-02T12:56:32.121Z,19.37
2019-01-02T12:59:01.294Z,26.07
2019-01-02T13:01:49.881Z,21.87
2019-01-02T13:04:49.130Z,19.93
2019-01-02T13:08:11.823Z,20.60
2019-01-02T13:11:10.726Z,18.03
2019-01-02T13:14:16.657Z,18.53
2019-01-02T13:17:29.881Z,15.63
2019-01-02T13:20:41.562Z,16.33
2019-01-02T13:23:44.353Z,14.67
2019-01-02T13:26:19.417Z,35.10
2019-01-02T13:29:08.159Z,25.40
2019-01-02T13:32:10.584Z,26.07
2019-01-02T13:35:06.301Z,33.73
2019-01-02T13:38:21.737Z,32.83
2019-01-02T13:41:46.905Z,30.00
2019-01-02T13:44:36.732Z,45.37
2019-01-02T13:47:52.645Z,22.90
2019-01-02T13:50:55.985Z,23.23
2019-01-02T13:53:25.085Z,19.70
2019-01-02T13:55:54.209Z,18.50
2019-01-02T13:58:23.431Z,22.00
2019-01-02T14:00:52.731Z,23.37
2019-01-02T14:03:21.837Z,28.37
2019-01-02T14:05:51.489Z,21.57
2019-01-02T14:08:20.618Z,34.63
2019-01-02T14:10:49.856Z,38.43
2019-01-02T14:13:19.017Z,39.07
2019-01-02T14:15:48.137Z,27.00
2019-01-02T14:18:17.270Z,32.30
2019-01-02T14:20:46.397Z,28.73
2019-01-02T14:23:15.553Z,28.57
2019-01-02T14:25:44.665Z,28.87
2019-01-02T14:28:14.205Z,24.90
2019-01-02T14:30:43.314Z,28.33
2019-01-02T14:33:12.429Z,27.53
2019-01-02T14:35:41.705Z,31.30
2019-01-02T14:38:10.879Z,38.47
2019-01-02T14:40:39.996Z,37.37
2019-01-02T14:43:09.317Z,35.17
2019-01-02T14:45:38.429Z,31.07
2019-01-02T14:48:07.546Z,28.03
2019-01-02T14:50:36.730Z,33.40
2019-01-02T14:53:05.856Z,35.57
2019-01-02T14:55:35.325Z,31.40
2019-01-02T14:58:04.454Z,43.17
2019-01-02T15:00:33.577Z,52.67
2019-01-02T15:03:03.028Z,32.17
2019-01-02T15:05:32.160Z,30.37
2019-01-02T15:08:01.401Z,29.50
2019-01-02T15:10:30.538Z,32.23
2019-01-02T15:12:59.661Z,26.90
2019-01-02T15:15:28.793Z,32.53
2019-01-02T15:17:58.242Z,34.97
2019-01-02T15:20:27.577Z,28.93
2019-01-02T15:22:56.698Z,32.67
2019-01-02T15:25:25.849Z,30.63
2019-01-02T15:27:57.560Z,29.77
2019-01-02T15:30:27.113Z,31.37
2019-01-02T15:32:56.245Z,30.90
2019-01-02T15:35:25.366Z,37.77
2019-01-02T15:37:54.545Z,30.93
2019-01-02T15:40:23.677Z,27.00
2019-01-02T15:42:52.773Z,22.03
2019-01-02T15:45:21.886Z,19.00
2019-01-02T15:47:51.299Z,21.87
2019-01-02T15:50:20.486Z,35.87
2019-01-02T15:52:49.677Z,28.40
2019-01-02T15:55:18.813Z,21.90
2019-01-02T15:57:47.947Z,28.97
2019-01-02T16:00:17.149Z,25.67
2019-01-02T16:02:46.262Z,29.60
2019-01-02T16:05:15.421Z,23.73
2019-01-02T16:07:44.549Z,33.27
2019-01-02T16:10:13.671Z,24.80
2019-01-02T16:12:47.373Z,33.80
2019-01-02T16:15:14.062Z,32.70
2019-01-02T16:17:43.245Z,39.03
2019-01-02T16:20:12.686Z,45.90
2019-01-02T16:22:41.807Z,23.43
2019-01-02T16:25:11.181Z,28.50
2019-01-02T16:27:40.313Z,25.13
2019-01-02T16:30:10.432Z,30.83
2019-01-02T16:32:39.581Z,21.73
2019-01-02T16:35:08.783Z,29.93
2019-01-02T16:37:37.929Z,26.67
2019-01-02T16:40:10.071Z,24.27
2019-01-02T16:42:39.198Z,26.07
2019-01-02T16:45:08.582Z,38.37
2019-01-02T16:47:38.010Z,26.83
2019-01-02T16:50:08.018Z,24.47
2019-01-02T16:52:37.122Z,30.17
2019-01-02T16:55:06.402Z,23.27
2019-01-02T16:57:35.657Z,24.70
2019-01-02T17:00:05.822Z,38.30
2019-01-02T17:02:34.979Z,37.27
2019-01-02T17:05:04.233Z,29.77
2019-01-02T17:07:33.356Z,24.77
2019-01-02T17:10:02.498Z,22.87
2019-01-02T17:12:31.674Z,24.83
2019-01-02T17:15:00.800Z,26.70
2019-01-02T17:17:29.937Z,23.63
2019-01-02T17:19:59.386Z,33.47
2019-01-02T17:22:28.502Z,34.70
2019-01-02T17:24:57.625Z,32.80
2019-01-02T17:27:26.921Z,33.83
2019-01-02T17:29:56.065Z,34.30
2019-01-02T17:32:25.195Z,31.00
2019-01-02T17:34:54.381Z,40.53
2019-01-02T17:37:23.617Z,37.07
2019-01-02T17:39:52.812Z,32.27
2019-01-02T17:42:21.952Z,38.60
2019-01-02T17:44:51.397Z,61.00
2019-01-02T17:47:20.554Z,43.03
2019-01-02T17:49:49.678Z,38.30
2019-01-02T17:52:18.824Z,40.27
2019-01-02T17:54:47.981Z,43.63
2019-01-02T17:57:17.174Z,44.13
2019-01-02T17:59:46.367Z,36.23
2019-01-02T18:02:15.598Z,28.70
2019-01-02T18:04:44.745Z,25.60
2019-01-02T18:07:13.862Z,27.73
2019-01-02T18:09:43.030Z,26.27
2019-01-02T18:12:12.270Z,22.33
2019-01-02T18:14:41.650Z,24.73
2019-01-02T18:17:10.769Z,24.50
2019-01-02T18:19:39.889Z,30.97
2019-01-02T18:22:09.041Z,28.87
2019-01-02T18:24:38.150Z,31.30
2019-01-02T18:27:07.652Z,24.23
2019-01-02T18:29:36.834Z,24.07
2019-01-02T18:32:05.982Z,26.43
2019-01-02T18:34:35.116Z,35.20
2019-01-02T18:37:04.321Z,26.90
2019-01-02T18:39:33.445Z,29.77
2019-01-02T18:42:02.765Z,29.07
2019-01-02T18:44:31.908Z,25.73
2019-01-02T18:47:01.030Z,27.07
2019-01-02T18:49:30.429Z,28.87
2019-01-02T18:51:59.557Z,24.63
2019-01-02T18:54:28.681Z,23.87
2019-01-02T18:56:57.799Z,25.57
2019-01-02T18:59:27.013Z,25.53
2019-01-02T19:01:56.133Z,23.93
2019-01-02T19:04:25.262Z,23.83
2019-01-02T19:06:54.401Z,29.30
2019-01-02T19:09:23.535Z,27.87
2019-01-02T19:11:53.208Z,34.30
2019-01-02T19:14:22.548Z,30.50
2019-01-02T19:16:51.691Z,25.87
2019-01-02T19:19:20.793Z,27.73
2019-01-02T19:21:50.138Z,31.17
2019-01-02T19:24:19.318Z,31.87
2019-01-02T19:26:48.425Z,37.57
2019-01-02T19:29:17.769Z,27.17
2019-01-02T19:31:46.890Z,27.07
2019-01-02T19:34:16.029Z,28.00
2019-01-02T19:36:45.466Z,30.03
2019-01-02T19:39:14.678Z,24.03
2019-01-02T19:41:43.818Z,28.30
2019-01-02T19:44:12.973Z,31.03
2019-01-02T19:46:42.093Z,26.77
2019-01-02T19:49:11.205Z,24.70
2019-01-02T19:51:40.697Z,21.50
2019-01-02T19:54:09.825Z,26.20
2019-01-02T19:56:39.029Z,20.60
2019-01-02T19:59:08.598Z,23.13
2019-01-02T20:01:37.765Z,25.67
2019-01-02T20:04:06.910Z,17.93
2019-01-02T20:06:36.310Z,20.97
2019-01-02T20:09:07.745Z,17.30
2019-01-02T20:11:36.882Z,15.37
2019-01-02T20:14:06.373Z,18.97
2019-01-02T20:16:35.485Z,14.33
2019-01-02T20:19:04.634Z,14.13
2019-01-02T20:21:34.094Z,17.00
2019-01-02T20:24:03.197Z,13.33
2019-01-02T20:26:32.304Z,14.77
2019-01-02T20:29:01.470Z,15.17
2019-01-02T20:31:30.598Z,12.07
2019-01-02T20:33:59.723Z,21.10
2019-01-02T20:36:29.094Z,15.63
2019-01-02T20:38:58.210Z,17.57
2019-01-02T20:41:27.337Z,15.77
2019-01-02T20:43:56.538Z,15.27
2019-01-02T20:46:26.016Z,13.63
2019-01-02T20:48:55.134Z,14.10
2019-01-02T20:51:24.237Z,14.20
2019-01-02T20:53:53.368Z,19.27
2019-01-02T20:56:22.482Z,19.70
2019-01-02T20:58:51.630Z,19.17
2019-01-02T21:01:20.761Z,22.60
2019-01-02T21:03:49.890Z,19.00
2019-01-02T21:06:19.074Z,15.27
2019-01-02T21:08:48.189Z,17.60
2019-01-02T21:11:17.317Z,15.80
2019-01-02T21:13:46.475Z,15.57
2019-01-02T21:16:15.589Z,15.43
2019-01-02T21:18:44.716Z,16.73
2019-01-02T21:21:13.873Z,14.97
2019-01-02T21:23:43.058Z,12.43
2019-01-02T21:26:12.165Z,13.27
2019-01-02T21:28:41.314Z,13.87
2019-01-02T21:31:10.498Z,18.13
2019-01-02T21:33:39.914Z,19.23
2019-01-02T21:36:09.086Z,20.20
2019-01-02T21:38:38.208Z,18.97
2019-01-02T21:41:07.325Z,17.87
2019-01-02T21:43:36.829Z,17.50
2019-01-02T21:46:05.971Z,14.47
2019-01-02T21:48:41.147Z,15.53
2019-01-02T21:51:06.046Z,15.37
2019-01-02T21:53:35.190Z,14.13
2019-01-02T21:56:04.298Z,18.73
2019-01-02T21:58:33.475Z,14.90
2019-01-02T22:01:02.634Z,17.00
2019-01-02T22:03:31.842Z,15.00
2019-01-02T22:06:01.025Z,13.33
2019-01-02T22:08:30.384Z,14.40
2019-01-02T22:10:59.493Z,16.20
2019-01-02T22:13:28.676Z,19.60
2019-01-02T22:15:57.830Z,15.50
2019-01-02T22:18:26.946Z,20.27
2019-01-02T22:20:56.062Z,20.37
2019-01-02T22:23:25.393Z,17.23
2019-01-02T22:25:54.509Z,16.93
2019-01-02T22:28:23.634Z,19.77
2019-01-02T22:30:52.770Z,20.97
2019-01-02T22:33:22.218Z,19.53
2019-01-02T22:35:51.360Z,16.63
2019-01-02T22:38:20.472Z,16.63
2019-01-02T22:40:49.601Z,16.53
2019-01-02T22:43:18.846Z,16.43
2019-01-02T22:45:47.955Z,17.53
2019-01-02T22:48:17.102Z,17.97
2019-01-02T22:50:46.237Z,17.50
2019-01-02T22:53:15.359Z,17.43
2019-01-02T22:55:44.537Z,16.33
2019-01-02T22:58:13.673Z,18.10
2019-01-02T23:01:05.998Z,19.10
2019-01-02T23:03:53.001Z,19.97
2019-01-02T23:06:59.622Z,13.47
2019-01-02T23:09:40.442Z,15.63
2019-01-02T23:12:31.531Z,15.53
2019-01-02T23:15:14.821Z,16.57
2019-01-02T23:18:01.849Z,17.60
2019-01-02T23:20:54.141Z,12.10
2019-01-02T23:23:41.277Z,14.40
2019-01-02T23:26:28.355Z,14.77
2019-01-02T23:29:31.869Z,12.30
2019-01-02T23:32:22.926Z,14.83
2019-01-02T23:35:09.690Z,15.90
2019-01-02T23:38:09.133Z,12.20
2019-01-02T23:40:53.645Z,12.23
2019-01-02T23:43:44.925Z,12.17
2019-01-02T23:46:38.049Z,13.63
2019-01-02T23:49:24.853Z,11.53
2019-01-02T23:52:19.037Z,14.93
2019-01-02T23:55:05.857Z,13.43
2019-01-02T23:58:06.649Z,10.67
